sensor_id;sensor_type;location;lat;lon;timestamp;temperature;humidity
6540;DHT22;50344;51.142;16.892;2024-03-23T00:54:03;23.40;40.80
6540;DHT22;50344;51.142;16.892;2024-03-23T00:56:29;23.40;41.60
6540;DHT22;50344;51.142;16.892;2024-03-23T00:58:54;23.40;40.70
6540;DHT22;50344;51.142;16.892;2024-03-23T01:01:20;23.40;40.80
6540;DHT22;50344;51.142;16.892;2024-03-23T01:03:46;23.40;40.80
6540;DHT22;50344;51.142;16.892;2024-03-23T01:06:11;23.40;40.70
6540;DHT22;50344;51.142;16.892;2024-03-23T01:08:37;23.40;40.70
6540;DHT22;50344;51.142;16.892;2024-03-23T01:11:03;23.40;40.70
6540;DHT22;50344;51.142;16.892;2024-03-23T01:13:28;23.40;40.70
6540;DHT22;50344;51.142;16.892;2024-03-23T01:15:54;23.40;40.60
6540;DHT22;50344;51.142;16.892;2024-03-23T01:18:21;23.40;40.70
6540;DHT22;50344;51.142;16.892;2024-03-23T01:20:47;23.40;40.70
6540;DHT22;50344;51.142;16.892;2024-03-23T01:23:12;23.40;40.70
6540;DHT22;50344;51.142;16.892;2024-03-23T01:25:38;23.40;40.60
6540;DHT22;50344;51.142;16.892;2024-03-23T01:28:03;23.40;40.50
6540;DHT22;50344;51.142;16.892;2024-03-23T01:30:29;23.40;40.50
6540;DHT22;50344;51.142;16.892;2024-03-23T01:32:55;23.40;40.70
6540;DHT22;50344;51.142;16.892;2024-03-23T01:35:21;23.40;40.70
6540;DHT22;50344;51.142;16.892;2024-03-23T01:37:46;23.40;40.70
6540;DHT22;50344;51.142;16.892;2024-03-23T01:40:12;23.30;40.50
6540;DHT22;50344;51.142;16.892;2024-03-23T01:42:39;23.40;40.60
6540;DHT22;50344;51.142;16.892;2024-03-23T01:45:06;23.40;40.70
6540;DHT22;50344;51.142;16.892;2024-03-23T01:47:32;23.30;40.50
6540;DHT22;50344;51.142;16.892;2024-03-23T01:49:59;23.40;40.50
6540;DHT22;50344;51.142;16.892;2024-03-23T01:52:24;23.40;40.50
6540;DHT22;50344;51.142;16.892;2024-03-23T01:54:50;23.40;40.60
6540;DHT22;50344;51.142;16.892;2024-03-23T01:57:16;23.30;40.50
6540;DHT22;50344;51.142;16.892;2024-03-23T01:59:42;23.40;40.60
6540;DHT22;50344;51.142;16.892;2024-03-23T02:02:07;23.30;40.30
6540;DHT22;50344;51.142;16.892;2024-03-23T02:04:33;23.40;40.50
6540;DHT22;50344;51.142;16.892;2024-03-23T02:06:58;23.40;40.50
6540;DHT22;50344;51.142;16.892;2024-03-23T02:09:24;23.40;40.50
6540;DHT22;50344;51.142;16.892;2024-03-23T02:11:50;23.40;40.50
6540;DHT22;50344;51.142;16.892;2024-03-23T02:14:16;23.40;40.60
6540;DHT22;50344;51.142;16.892;2024-03-23T02:16:41;23.40;40.60
6540;DHT22;50344;51.142;16.892;2024-03-23T02:19:08;23.40;40.70
6540;DHT22;50344;51.142;16.892;2024-03-23T02:21:34;23.30;40.50
6540;DHT22;50344;51.142;16.892;2024-03-23T02:23:59;23.30;40.50
6540;DHT22;50344;51.142;16.892;2024-03-23T02:26:25;23.30;40.50
6540;DHT22;50344;51.142;16.892;2024-03-23T02:28:51;23.30;40.40
6540;DHT22;50344;51.142;16.892;2024-03-23T02:31:16;23.30;40.40
6540;DHT22;50344;51.142;16.892;2024-03-23T02:33:42;23.30;40.30
6540;DHT22;50344;51.142;16.892;2024-03-23T02:36:07;23.30;40.40
6540;DHT22;50344;51.142;16.892;2024-03-23T02:38:33;23.30;40.30
6540;DHT22;50344;51.142;16.892;2024-03-23T02:41:04;23.30;40.40
6540;DHT22;50344;51.142;16.892;2024-03-23T02:43:31;23.30;40.40
6540;DHT22;50344;51.142;16.892;2024-03-23T02:45:56;23.30;40.50
6540;DHT22;50344;51.142;16.892;2024-03-23T02:48:22;23.30;40.50
6540;DHT22;50344;51.142;16.892;2024-03-23T02:50:48;23.30;40.50
6540;DHT22;50344;51.142;16.892;2024-03-23T02:53:13;23.30;40.50
6540;DHT22;50344;51.142;16.892;2024-03-23T02:55:39;23.30;40.40
6540;DHT22;50344;51.142;16.892;2024-03-23T02:58:04;23.30;40.40
6540;DHT22;50344;51.142;16.892;2024-03-23T03:00:30;23.30;40.40
6540;DHT22;50344;51.142;16.892;2024-03-23T03:02:55;23.30;40.40
6540;DHT22;50344;51.142;16.892;2024-03-23T03:05:21;23.30;40.40
6540;DHT22;50344;51.142;16.892;2024-03-23T03:07:46;23.30;40.40
6540;DHT22;50344;51.142;16.892;2024-03-23T03:10:12;23.30;40.30
6540;DHT22;50344;51.142;16.892;2024-03-23T03:12:37;23.30;40.30
6540;DHT22;50344;51.142;16.892;2024-03-23T03:15:03;23.30;40.30
6540;DHT22;50344;51.142;16.892;2024-03-23T03:17:30;23.30;40.30
6540;DHT22;50344;51.142;16.892;2024-03-23T03:19:55;23.30;40.30
6540;DHT22;50344;51.142;16.892;2024-03-23T03:22:24;23.30;40.40
6540;DHT22;50344;51.142;16.892;2024-03-23T03:24:50;23.30;40.30
6540;DHT22;50344;51.142;16.892;2024-03-23T03:27:15;23.30;40.30
6540;DHT22;50344;51.142;16.892;2024-03-23T03:29:41;23.30;40.30
6540;DHT22;50344;51.142;16.892;2024-03-23T03:32:06;23.30;40.40
6540;DHT22;50344;51.142;16.892;2024-03-23T03:34:32;23.30;40.30
6540;DHT22;50344;51.142;16.892;2024-03-23T03:36:57;23.30;40.40
6540;DHT22;50344;51.142;16.892;2024-03-23T03:39:23;23.30;40.40
6540;DHT22;50344;51.142;16.892;2024-03-23T03:41:49;23.30;40.40
6540;DHT22;50344;51.142;16.892;2024-03-23T03:44:15;23.30;40.40
6540;DHT22;50344;51.142;16.892;2024-03-23T03:46:40;23.30;40.40
6540;DHT22;50344;51.142;16.892;2024-03-23T03:49:06;23.30;40.30
6540;DHT22;50344;51.142;16.892;2024-03-23T03:51:31;23.30;40.40
6540;DHT22;50344;51.142;16.892;2024-03-23T03:53:57;23.30;40.50
6540;DHT22;50344;51.142;16.892;2024-03-23T03:56:22;23.30;40.50
6540;DHT22;50344;51.142;16.892;2024-03-23T03:58:48;23.30;40.50
6540;DHT22;50344;51.142;16.892;2024-03-23T04:01:13;23.20;40.50
6540;DHT22;50344;51.142;16.892;2024-03-23T04:03:39;23.30;40.50
6540;DHT22;50344;51.142;16.892;2024-03-23T04:06:11;23.30;40.50
6540;DHT22;50344;51.142;16.892;2024-03-23T04:08:37;23.20;40.50
6540;DHT22;50344;51.142;16.892;2024-03-23T04:11:02;23.30;40.50
6540;DHT22;50344;51.142;16.892;2024-03-23T04:13:28;23.30;40.50
6540;DHT22;50344;51.142;16.892;2024-03-23T04:15:54;23.30;40.50
6540;DHT22;50344;51.142;16.892;2024-03-23T04:18:20;23.20;40.40
6540;DHT22;50344;51.142;16.892;2024-03-23T04:20:47;23.30;40.50
6540;DHT22;50344;51.142;16.892;2024-03-23T04:23:12;23.30;40.50
6540;DHT22;50344;51.142;16.892;2024-03-23T04:25:38;23.20;40.30
6540;DHT22;50344;51.142;16.892;2024-03-23T04:28:03;23.20;40.30
6540;DHT22;50344;51.142;16.892;2024-03-23T04:30:29;23.30;40.40
6540;DHT22;50344;51.142;16.892;2024-03-23T04:32:57;23.30;40.40
6540;DHT22;50344;51.142;16.892;2024-03-23T04:35:24;23.30;40.40
6540;DHT22;50344;51.142;16.892;2024-03-23T04:37:51;23.20;40.30
6540;DHT22;50344;51.142;16.892;2024-03-23T04:40:17;23.30;40.30
6540;DHT22;50344;51.142;16.892;2024-03-23T04:42:43;23.30;40.30
6540;DHT22;50344;51.142;16.892;2024-03-23T04:45:09;23.30;40.30
6540;DHT22;50344;51.142;16.892;2024-03-23T04:47:36;23.30;40.30
6540;DHT22;50344;51.142;16.892;2024-03-23T04:50:02;23.20;40.20
6540;DHT22;50344;51.142;16.892;2024-03-23T04:52:28;23.30;40.30
6540;DHT22;50344;51.142;16.892;2024-03-23T04:54:54;23.20;40.20
6540;DHT22;50344;51.142;16.892;2024-03-23T04:57:20;23.20;40.20
6540;DHT22;50344;51.142;16.892;2024-03-23T04:59:45;23.20;40.20
6540;DHT22;50344;51.142;16.892;2024-03-23T05:02:10;23.20;40.20
6540;DHT22;50344;51.142;16.892;2024-03-23T05:04:36;23.20;40.30
6540;DHT22;50344;51.142;16.892;2024-03-23T05:07:02;23.20;41.00
6540;DHT22;50344;51.142;16.892;2024-03-23T05:09:29;23.20;40.20
6540;DHT22;50344;51.142;16.892;2024-03-23T05:11:55;23.20;40.20
6540;DHT22;50344;51.142;16.892;2024-03-23T05:14:22;23.20;40.30
6540;DHT22;50344;51.142;16.892;2024-03-23T05:16:47;23.20;40.30
6540;DHT22;50344;51.142;16.892;2024-03-23T05:19:12;23.20;40.40
6540;DHT22;50344;51.142;16.892;2024-03-23T05:21:38;23.20;40.40
6540;DHT22;50344;51.142;16.892;2024-03-23T05:24:04;23.20;40.40
6540;DHT22;50344;51.142;16.892;2024-03-23T05:26:29;23.20;40.50
6540;DHT22;50344;51.142;16.892;2024-03-23T05:28:56;23.20;40.50
6540;DHT22;50344;51.142;16.892;2024-03-23T05:31:24;23.20;40.50
6540;DHT22;50344;51.142;16.892;2024-03-23T05:33:50;23.20;40.50
6540;DHT22;50344;51.142;16.892;2024-03-23T05:36:15;23.20;40.50
6540;DHT22;50344;51.142;16.892;2024-03-23T05:38:42;23.20;40.50
6540;DHT22;50344;51.142;16.892;2024-03-23T05:41:07;23.20;40.50
6540;DHT22;50344;51.142;16.892;2024-03-23T05:43:33;23.20;40.50
6540;DHT22;50344;51.142;16.892;2024-03-23T05:45:59;23.20;40.50
6540;DHT22;50344;51.142;16.892;2024-03-23T05:48:25;23.20;40.50
6540;DHT22;50344;51.142;16.892;2024-03-23T05:50:51;23.20;40.40
6540;DHT22;50344;51.142;16.892;2024-03-23T05:53:17;23.20;40.30
6540;DHT22;50344;51.142;16.892;2024-03-23T05:55:43;23.20;40.50
6540;DHT22;50344;51.142;16.892;2024-03-23T05:58:09;23.20;40.60
6540;DHT22;50344;51.142;16.892;2024-03-23T06:00:35;23.20;40.50
6540;DHT22;50344;51.142;16.892;2024-03-23T06:03:01;23.20;40.40
6540;DHT22;50344;51.142;16.892;2024-03-23T06:05:26;23.20;40.40
6540;DHT22;50344;51.142;16.892;2024-03-23T06:07:52;23.20;40.30
6540;DHT22;50344;51.142;16.892;2024-03-23T06:10:18;23.20;40.30
6540;DHT22;50344;51.142;16.892;2024-03-23T06:12:43;23.20;40.40
6540;DHT22;50344;51.142;16.892;2024-03-23T06:15:11;23.20;40.30
6540;DHT22;50344;51.142;16.892;2024-03-23T06:17:36;23.20;40.30
6540;DHT22;50344;51.142;16.892;2024-03-23T06:20:02;23.20;40.30
6540;DHT22;50344;51.142;16.892;2024-03-23T06:22:28;23.20;40.30
6540;DHT22;50344;51.142;16.892;2024-03-23T06:24:54;23.20;40.20
6540;DHT22;50344;51.142;16.892;2024-03-23T06:27:19;23.20;40.20
6540;DHT22;50344;51.142;16.892;2024-03-23T06:29:45;23.20;40.20
6540;DHT22;50344;51.142;16.892;2024-03-23T06:32:10;23.20;40.20
6540;DHT22;50344;51.142;16.892;2024-03-23T06:34:36;23.20;40.30
6540;DHT22;50344;51.142;16.892;2024-03-23T06:37:01;23.20;40.30
6540;DHT22;50344;51.142;16.892;2024-03-23T06:39:28;23.20;40.30
6540;DHT22;50344;51.142;16.892;2024-03-23T06:41:54;23.20;40.30
6540;DHT22;50344;51.142;16.892;2024-03-23T06:44:20;23.20;40.20
6540;DHT22;50344;51.142;16.892;2024-03-23T06:46:45;23.20;40.20
6540;DHT22;50344;51.142;16.892;2024-03-23T06:49:11;23.20;40.30
6540;DHT22;50344;51.142;16.892;2024-03-23T06:51:36;23.20;40.20
6540;DHT22;50344;51.142;16.892;2024-03-23T06:54:03;23.20;40.10
6540;DHT22;50344;51.142;16.892;2024-03-23T06:56:31;23.20;40.40
6540;DHT22;50344;51.142;16.892;2024-03-23T06:58:57;23.20;40.30
6540;DHT22;50344;51.142;16.892;2024-03-23T07:01:22;23.20;40.10
6540;DHT22;50344;51.142;16.892;2024-03-23T07:03:48;23.30;40.20
6540;DHT22;50344;51.142;16.892;2024-03-23T07:06:13;23.30;40.10
6540;DHT22;50344;51.142;16.892;2024-03-23T07:08:39;23.20;40.00
6540;DHT22;50344;51.142;16.892;2024-03-23T07:11:04;23.20;39.60
6540;DHT22;50344;51.142;16.892;2024-03-23T07:13:30;23.30;39.90
6540;DHT22;50344;51.142;16.892;2024-03-23T07:15:56;23.30;40.40
6540;DHT22;50344;51.142;16.892;2024-03-23T07:18:22;23.30;40.80
6540;DHT22;50344;51.142;16.892;2024-03-23T07:20:57;23.30;41.30
6540;DHT22;50344;51.142;16.892;2024-03-23T07:23:23;23.30;41.60
6540;DHT22;50344;51.142;16.892;2024-03-23T07:26:04;23.40;41.70
6540;DHT22;50344;51.142;16.892;2024-03-23T07:28:31;23.30;41.90
6540;DHT22;50344;51.142;16.892;2024-03-23T07:31:04;23.40;41.80
6540;DHT22;50344;51.142;16.892;2024-03-23T07:33:30;23.40;42.00
6540;DHT22;50344;51.142;16.892;2024-03-23T07:35:55;23.40;42.50
6540;DHT22;50344;51.142;16.892;2024-03-23T07:38:21;23.40;42.00
6540;DHT22;50344;51.142;16.892;2024-03-23T07:40:46;23.40;42.00
6540;DHT22;50344;51.142;16.892;2024-03-23T07:43:12;23.40;42.10
6540;DHT22;50344;51.142;16.892;2024-03-23T07:45:37;23.40;42.00
6540;DHT22;50344;51.142;16.892;2024-03-23T07:48:03;23.40;42.00
6540;DHT22;50344;51.142;16.892;2024-03-23T07:50:29;23.50;42.10
6540;DHT22;50344;51.142;16.892;2024-03-23T07:52:54;23.50;42.40
6540;DHT22;50344;51.142;16.892;2024-03-23T07:55:20;23.50;42.40
6540;DHT22;50344;51.142;16.892;2024-03-23T07:57:46;23.50;42.40
6540;DHT22;50344;51.142;16.892;2024-03-23T08:00:12;23.50;42.10
6540;DHT22;50344;51.142;16.892;2024-03-23T08:02:38;23.50;41.80
6540;DHT22;50344;51.142;16.892;2024-03-23T08:05:04;23.50;41.90
6540;DHT22;50344;51.142;16.892;2024-03-23T08:07:30;23.50;41.90
6540;DHT22;50344;51.142;16.892;2024-03-23T08:09:55;23.50;41.10
6540;DHT22;50344;51.142;16.892;2024-03-23T08:12:21;23.50;41.40
6540;DHT22;50344;51.142;16.892;2024-03-23T08:14:46;23.40;41.40
6540;DHT22;50344;51.142;16.892;2024-03-23T08:17:12;23.40;41.60
6540;DHT22;50344;51.142;16.892;2024-03-23T08:19:37;23.50;41.40
6540;DHT22;50344;51.142;16.892;2024-03-23T08:22:03;23.50;41.40
6540;DHT22;50344;51.142;16.892;2024-03-23T08:24:28;23.50;41.50
6540;DHT22;50344;51.142;16.892;2024-03-23T08:26:55;23.50;41.30
6540;DHT22;50344;51.142;16.892;2024-03-23T08:29:21;23.50;41.50
6540;DHT22;50344;51.142;16.892;2024-03-23T08:31:46;23.40;41.60
6540;DHT22;50344;51.142;16.892;2024-03-23T08:34:12;23.50;41.70
6540;DHT22;50344;51.142;16.892;2024-03-23T08:36:37;23.50;41.90
6540;DHT22;50344;51.142;16.892;2024-03-23T08:39:03;23.40;41.90
6540;DHT22;50344;51.142;16.892;2024-03-23T08:41:28;23.40;41.90
6540;DHT22;50344;51.142;16.892;2024-03-23T08:43:54;23.50;41.80
6540;DHT22;50344;51.142;16.892;2024-03-23T08:46:19;23.40;42.00
6540;DHT22;50344;51.142;16.892;2024-03-23T08:48:45;23.40;42.10
6540;DHT22;50344;51.142;16.892;2024-03-23T08:51:12;23.40;42.20
6540;DHT22;50344;51.142;16.892;2024-03-23T08:53:38;23.40;41.80
6540;DHT22;50344;51.142;16.892;2024-03-23T08:56:04;23.40;41.60
6540;DHT22;50344;51.142;16.892;2024-03-23T08:58:31;23.40;41.60
6540;DHT22;50344;51.142;16.892;2024-03-23T09:01:03;23.40;41.50
6540;DHT22;50344;51.142;16.892;2024-03-23T09:03:28;23.40;41.40
6540;DHT22;50344;51.142;16.892;2024-03-23T09:05:54;23.30;41.40
6540;DHT22;50344;51.142;16.892;2024-03-23T09:08:20;23.30;41.50
6540;DHT22;50344;51.142;16.892;2024-03-23T09:10:47;23.30;41.80
6540;DHT22;50344;51.142;16.892;2024-03-23T09:13:12;23.40;42.10
6540;DHT22;50344;51.142;16.892;2024-03-23T09:15:45;23.30;41.80
6540;DHT22;50344;51.142;16.892;2024-03-23T09:18:11;23.40;42.20
6540;DHT22;50344;51.142;16.892;2024-03-23T09:20:36;23.40;42.20
6540;DHT22;50344;51.142;16.892;2024-03-23T09:23:02;23.40;42.10
6540;DHT22;50344;51.142;16.892;2024-03-23T09:25:28;23.30;41.90
6540;DHT22;50344;51.142;16.892;2024-03-23T09:27:53;23.40;42.00
6540;DHT22;50344;51.142;16.892;2024-03-23T09:30:19;23.40;42.00
6540;DHT22;50344;51.142;16.892;2024-03-23T09:32:45;23.40;42.00
6540;DHT22;50344;51.142;16.892;2024-03-23T09:35:11;23.30;41.80
6540;DHT22;50344;51.142;16.892;2024-03-23T09:37:38;23.30;41.80
6540;DHT22;50344;51.142;16.892;2024-03-23T09:40:09;23.30;41.80
6540;DHT22;50344;51.142;16.892;2024-03-23T09:42:34;23.30;41.60
6540;DHT22;50344;51.142;16.892;2024-03-23T09:45:00;23.40;41.20
6540;DHT22;50344;51.142;16.892;2024-03-23T09:47:26;23.30;41.50
6540;DHT22;50344;51.142;16.892;2024-03-23T09:49:51;23.30;41.40
6540;DHT22;50344;51.142;16.892;2024-03-23T09:52:17;23.30;41.30
6540;DHT22;50344;51.142;16.892;2024-03-23T09:54:43;23.30;41.40
6540;DHT22;50344;51.142;16.892;2024-03-23T09:57:08;23.30;41.10
6540;DHT22;50344;51.142;16.892;2024-03-23T09:59:34;23.30;41.00
6540;DHT22;50344;51.142;16.892;2024-03-23T10:02:01;23.30;41.20
6540;DHT22;50344;51.142;16.892;2024-03-23T10:04:39;23.30;40.60
6540;DHT22;50344;51.142;16.892;2024-03-23T10:07:10;23.30;41.10
6540;DHT22;50344;51.142;16.892;2024-03-23T10:09:36;23.30;40.90
6540;DHT22;50344;51.142;16.892;2024-03-23T10:12:11;23.30;40.60
6540;DHT22;50344;51.142;16.892;2024-03-23T10:14:41;23.40;41.20
6540;DHT22;50344;51.142;16.892;2024-03-23T10:17:16;23.30;40.90
6540;DHT22;50344;51.142;16.892;2024-03-23T10:19:45;23.40;40.60
6540;DHT22;50344;51.142;16.892;2024-03-23T10:22:14;23.30;40.10
6540;DHT22;50344;51.142;16.892;2024-03-23T10:24:43;23.30;40.30
6540;DHT22;50344;51.142;16.892;2024-03-23T10:27:09;23.40;40.20
6540;DHT22;50344;51.142;16.892;2024-03-23T10:29:34;23.30;39.90
6540;DHT22;50344;51.142;16.892;2024-03-23T10:32:10;23.40;40.00
6540;DHT22;50344;51.142;16.892;2024-03-23T10:34:36;23.40;40.10
6540;DHT22;50344;51.142;16.892;2024-03-23T10:37:02;23.40;40.50
6540;DHT22;50344;51.142;16.892;2024-03-23T10:39:28;23.40;40.60
6540;DHT22;50344;51.142;16.892;2024-03-23T10:41:54;23.40;40.20
6540;DHT22;50344;51.142;16.892;2024-03-23T10:44:21;23.50;39.90
6540;DHT22;50344;51.142;16.892;2024-03-23T10:46:50;23.50;40.00
6540;DHT22;50344;51.142;16.892;2024-03-23T10:49:16;23.50;40.30
6540;DHT22;50344;51.142;16.892;2024-03-23T10:51:41;23.50;39.90
6540;DHT22;50344;51.142;16.892;2024-03-23T10:54:07;23.50;40.10
6540;DHT22;50344;51.142;16.892;2024-03-23T10:56:38;23.50;39.60
6540;DHT22;50344;51.142;16.892;2024-03-23T10:59:05;23.50;40.30
6540;DHT22;50344;51.142;16.892;2024-03-23T11:01:32;23.40;39.70
6540;DHT22;50344;51.142;16.892;2024-03-23T11:03:58;23.40;39.60
6540;DHT22;50344;51.142;16.892;2024-03-23T11:06:38;23.40;39.50
6540;DHT22;50344;51.142;16.892;2024-03-23T11:14:53;23.40;39.70
6540;DHT22;50344;51.142;16.892;2024-03-23T11:17:23;23.40;39.90
6540;DHT22;50344;51.142;16.892;2024-03-23T11:22:45;23.40;39.40
6540;DHT22;50344;51.142;16.892;2024-03-23T11:25:18;23.40;39.60
6540;DHT22;50344;51.142;16.892;2024-03-23T11:27:45;23.40;39.70
6540;DHT22;50344;51.142;16.892;2024-03-23T11:30:18;23.40;39.80
6540;DHT22;50344;51.142;16.892;2024-03-23T11:32:47;23.40;38.70
6540;DHT22;50344;51.142;16.892;2024-03-23T11:35:33;23.40;39.30
6540;DHT22;50344;51.142;16.892;2024-03-23T11:40:33;23.40;38.70
6540;DHT22;50344;51.142;16.892;2024-03-23T11:42:59;23.30;38.60
6540;DHT22;50344;51.142;16.892;2024-03-23T11:45:25;23.30;39.10
6540;DHT22;50344;51.142;16.892;2024-03-23T11:50:28;23.30;38.60
6540;DHT22;50344;51.142;16.892;2024-03-23T11:53:05;23.30;38.60
6540;DHT22;50344;51.142;16.892;2024-03-23T11:55:38;23.20;38.60
6540;DHT22;50344;51.142;16.892;2024-03-23T11:58:03;23.30;39.10
6540;DHT22;50344;51.142;16.892;2024-03-23T12:00:29;23.30;38.60
6540;DHT22;50344;51.142;16.892;2024-03-23T12:02:59;23.20;38.20
6540;DHT22;50344;51.142;16.892;2024-03-23T12:05:26;23.20;38.30
6540;DHT22;50344;51.142;16.892;2024-03-23T12:07:51;23.20;38.60
6540;DHT22;50344;51.142;16.892;2024-03-23T12:10:18;23.20;38.60
6540;DHT22;50344;51.142;16.892;2024-03-23T12:12:44;23.30;38.90
6540;DHT22;50344;51.142;16.892;2024-03-23T12:15:10;23.30;38.60
6540;DHT22;50344;51.142;16.892;2024-03-23T12:17:37;23.30;38.60
6540;DHT22;50344;51.142;16.892;2024-03-23T12:20:04;23.20;39.30
6540;DHT22;50344;51.142;16.892;2024-03-23T12:22:29;23.20;38.70
6540;DHT22;50344;51.142;16.892;2024-03-23T12:24:55;23.20;38.60
6540;DHT22;50344;51.142;16.892;2024-03-23T12:27:21;23.20;38.60
6540;DHT22;50344;51.142;16.892;2024-03-23T12:29:47;23.20;38.60
6540;DHT22;50344;51.142;16.892;2024-03-23T12:32:13;23.30;38.70
6540;DHT22;50344;51.142;16.892;2024-03-23T12:34:38;23.30;38.60
6540;DHT22;50344;51.142;16.892;2024-03-23T12:37:04;23.20;38.60
6540;DHT22;50344;51.142;16.892;2024-03-23T12:39:31;23.20;38.60
6540;DHT22;50344;51.142;16.892;2024-03-23T12:41:57;23.20;38.30
6540;DHT22;50344;51.142;16.892;2024-03-23T12:44:22;23.20;38.60
6540;DHT22;50344;51.142;16.892;2024-03-23T12:46:48;23.20;38.60
6540;DHT22;50344;51.142;16.892;2024-03-23T12:49:13;23.30;38.70
6540;DHT22;50344;51.142;16.892;2024-03-23T12:51:39;23.30;38.60
6540;DHT22;50344;51.142;16.892;2024-03-23T12:54:11;23.30;38.60
6540;DHT22;50344;51.142;16.892;2024-03-23T12:56:36;23.30;38.50
6540;DHT22;50344;51.142;16.892;2024-03-23T12:59:02;23.20;38.60
6540;DHT22;50344;51.142;16.892;2024-03-23T13:01:27;23.20;39.00
6540;DHT22;50344;51.142;16.892;2024-03-23T13:03:56;23.30;38.30
6540;DHT22;50344;51.142;16.892;2024-03-23T13:06:21;23.10;36.40
6540;DHT22;50344;51.142;16.892;2024-03-23T13:08:47;22.90;36.60
6540;DHT22;50344;51.142;16.892;2024-03-23T13:11:13;22.80;36.60
6540;DHT22;50344;51.142;16.892;2024-03-23T13:13:39;22.70;37.00
6540;DHT22;50344;51.142;16.892;2024-03-23T13:16:05;22.80;38.20
6540;DHT22;50344;51.142;16.892;2024-03-23T13:18:31;23.50;38.80
6540;DHT22;50344;51.142;16.892;2024-03-23T13:20:56;23.00;38.40
6540;DHT22;50344;51.142;16.892;2024-03-23T13:23:22;23.10;37.90
6540;DHT22;50344;51.142;16.892;2024-03-23T13:28:18;22.80;36.30
6540;DHT22;50344;51.142;16.892;2024-03-23T13:30:53;22.70;36.00
6540;DHT22;50344;51.142;16.892;2024-03-23T13:33:19;22.60;35.70
6540;DHT22;50344;51.142;16.892;2024-03-23T13:38:16;22.50;36.10
6540;DHT22;50344;51.142;16.892;2024-03-23T13:40:51;22.50;36.30
6540;DHT22;50344;51.142;16.892;2024-03-23T13:43:17;22.50;36.40
6540;DHT22;50344;51.142;16.892;2024-03-23T13:45:42;22.50;36.50
6540;DHT22;50344;51.142;16.892;2024-03-23T13:48:08;22.50;36.10
6540;DHT22;50344;51.142;16.892;2024-03-23T13:50:33;22.40;36.30
6540;DHT22;50344;51.142;16.892;2024-03-23T13:52:59;22.40;36.70
6540;DHT22;50344;51.142;16.892;2024-03-23T13:55:24;22.40;36.50
6540;DHT22;50344;51.142;16.892;2024-03-23T13:57:50;22.30;36.30
6540;DHT22;50344;51.142;16.892;2024-03-23T14:00:16;22.30;36.00
6540;DHT22;50344;51.142;16.892;2024-03-23T14:02:43;22.20;35.80
6540;DHT22;50344;51.142;16.892;2024-03-23T14:05:09;22.20;35.90
6540;DHT22;50344;51.142;16.892;2024-03-23T14:07:34;22.20;35.80
6540;DHT22;50344;51.142;16.892;2024-03-23T14:10:03;22.10;35.50
6540;DHT22;50344;51.142;16.892;2024-03-23T14:12:30;22.10;35.60
6540;DHT22;50344;51.142;16.892;2024-03-23T14:14:55;22.10;36.10
6540;DHT22;50344;51.142;16.892;2024-03-23T14:17:21;22.30;36.80
6540;DHT22;50344;51.142;16.892;2024-03-23T14:19:46;22.40;37.10
6540;DHT22;50344;51.142;16.892;2024-03-23T14:22:12;22.50;37.20
6540;DHT22;50344;51.142;16.892;2024-03-23T14:24:37;22.50;37.10
6540;DHT22;50344;51.142;16.892;2024-03-23T14:27:04;22.60;37.00
6540;DHT22;50344;51.142;16.892;2024-03-23T14:29:30;22.50;36.40
6540;DHT22;50344;51.142;16.892;2024-03-23T14:31:56;22.60;37.10
6540;DHT22;50344;51.142;16.892;2024-03-23T14:34:22;22.60;36.60
6540;DHT22;50344;51.142;16.892;2024-03-23T14:36:50;22.60;36.00
6540;DHT22;50344;51.142;16.892;2024-03-23T14:39:16;22.50;35.30
6540;DHT22;50344;51.142;16.892;2024-03-23T14:41:41;22.60;35.20
6540;DHT22;50344;51.142;16.892;2024-03-23T14:44:07;22.50;34.80
6540;DHT22;50344;51.142;16.892;2024-03-23T14:46:32;22.50;34.70
6540;DHT22;50344;51.142;16.892;2024-03-23T14:48:58;22.50;34.20
6540;DHT22;50344;51.142;16.892;2024-03-23T14:51:24;22.50;34.20
6540;DHT22;50344;51.142;16.892;2024-03-23T14:53:49;22.60;34.40
6540;DHT22;50344;51.142;16.892;2024-03-23T14:56:15;22.60;34.70
6540;DHT22;50344;51.142;16.892;2024-03-23T14:58:41;22.70;34.40
6540;DHT22;50344;51.142;16.892;2024-03-23T15:01:07;22.70;35.00
6540;DHT22;50344;51.142;16.892;2024-03-23T15:03:36;22.80;35.10
6540;DHT22;50344;51.142;16.892;2024-03-23T15:06:04;22.70;34.50
6540;DHT22;50344;51.142;16.892;2024-03-23T15:08:29;22.70;34.60
6540;DHT22;50344;51.142;16.892;2024-03-23T15:10:58;22.70;34.40
6540;DHT22;50344;51.142;16.892;2024-03-23T15:13:24;22.70;34.40
6540;DHT22;50344;51.142;16.892;2024-03-23T15:15:49;22.70;34.40
6540;DHT22;50344;51.142;16.892;2024-03-23T15:18:16;22.60;34.40
6540;DHT22;50344;51.142;16.892;2024-03-23T15:21:00;22.70;34.00
6540;DHT22;50344;51.142;16.892;2024-03-23T15:23:30;22.60;33.90
6540;DHT22;50344;51.142;16.892;2024-03-23T15:26:00;22.60;34.20
6540;DHT22;50344;51.142;16.892;2024-03-23T15:28:26;22.70;34.00
6540;DHT22;50344;51.142;16.892;2024-03-23T15:31:05;22.60;34.00
6540;DHT22;50344;51.142;16.892;2024-03-23T15:33:30;22.70;33.90
6540;DHT22;50344;51.142;16.892;2024-03-23T15:35:59;22.60;33.20
6540;DHT22;50344;51.142;16.892;2024-03-23T15:38:24;22.60;33.10
6540;DHT22;50344;51.142;16.892;2024-03-23T15:40:51;22.60;32.90
6540;DHT22;50344;51.142;16.892;2024-03-23T15:43:16;22.20;33.10
6540;DHT22;50344;51.142;16.892;2024-03-23T15:45:42;22.70;33.00
6540;DHT22;50344;51.142;16.892;2024-03-23T15:48:07;22.70;33.80
6540;DHT22;50344;51.142;16.892;2024-03-23T15:50:33;22.70;33.30
6540;DHT22;50344;51.142;16.892;2024-03-23T15:52:58;22.60;32.90
6540;DHT22;50344;51.142;16.892;2024-03-23T15:55:24;22.60;32.90
6540;DHT22;50344;51.142;16.892;2024-03-23T15:57:49;22.60;33.00
6540;DHT22;50344;51.142;16.892;2024-03-23T16:00:15;22.60;32.90
6540;DHT22;50344;51.142;16.892;2024-03-23T16:02:41;22.60;32.90
6540;DHT22;50344;51.142;16.892;2024-03-23T16:05:07;22.60;32.90
6540;DHT22;50344;51.142;16.892;2024-03-23T16:07:36;22.60;32.90
6540;DHT22;50344;51.142;16.892;2024-03-23T16:10:02;22.60;33.60
6540;DHT22;50344;51.142;16.892;2024-03-23T16:12:30;22.60;32.90
6540;DHT22;50344;51.142;16.892;2024-03-23T16:14:56;22.70;33.00
6540;DHT22;50344;51.142;16.892;2024-03-23T16:17:22;22.60;32.80
6540;DHT22;50344;51.142;16.892;2024-03-23T16:19:47;22.60;32.90
6540;DHT22;50344;51.142;16.892;2024-03-23T16:22:12;22.60;32.90
6540;DHT22;50344;51.142;16.892;2024-03-23T16:24:38;22.60;32.90
6540;DHT22;50344;51.142;16.892;2024-03-23T16:27:04;22.60;32.90
6540;DHT22;50344;51.142;16.892;2024-03-23T16:29:29;22.60;32.70
6540;DHT22;50344;51.142;16.892;2024-03-23T16:31:55;22.60;32.90
6540;DHT22;50344;51.142;16.892;2024-03-23T16:34:20;22.60;32.90
6540;DHT22;50344;51.142;16.892;2024-03-23T16:36:46;22.60;32.90